Time;durP1;ratioP1;P1;durP2;ratioP2;P2;SDS_P1;SDS_P2;PMS_P1;PMS_P2;Temp;Humidity;BMP_temperature;BMP_pressure;BME280_temperature;BME280_humidity;BME280_pressure;Samples;Min_cycle;Max_cycle;Signal;HPM_P1;HPM_P2
2022/04/28 00:02:28;;;;;;;28.60;14.17;;;5.90;99.90;;;;;;5136860;28;20061;-75
2022/04/28 00:05:03;;;;;;;24.40;15.55;;;5.90;99.90;;;;;;5117154;28;20050;-74
2022/04/28 00:07:36;;;;;;;22.38;14.52;;;5.90;99.90;;;;;;5142628;28;20917;-75
2022/04/28 00:10:09;;;;;;;26.15;16.38;;;5.90;99.90;;;;;;5123690;28;20038;-75
2022/04/28 00:12:42;;;;;;;22.95;15.20;;;5.90;99.90;;;;;;5127632;28;20043;-75
2022/04/28 00:15:15;;;;;;;23.90;15.02;;;5.80;99.90;;;;;;5122701;28;20043;-75
2022/04/28 00:17:47;;;;;;;24.00;14.68;;;5.80;99.90;;;;;;5127647;28;20047;-76
2022/04/28 00:20:23;;;;;;;26.10;16.13;;;5.70;99.90;;;;;;5130158;28;20111;-75
2022/04/28 00:22:56;;;;;;;22.25;14.55;;;5.60;99.90;;;;;;5123828;28;20043;-76
2022/04/28 00:25:29;;;;;;;25.37;15.67;;;5.60;99.90;;;;;;5134052;28;20418;-77
2022/04/28 00:28:02;;;;;;;26.48;15.20;;;5.60;99.90;;;;;;5134023;28;20050;-75
2022/04/28 00:30:34;;;;;;;24.65;15.75;;;5.50;99.90;;;;;;5123406;28;20538;-76
2022/04/28 00:33:07;;;;;;;24.45;15.55;;;5.50;99.90;;;;;;5132251;28;20054;-75
2022/04/28 00:35:39;;;;;;;21.20;13.82;;;5.50;99.90;;;;;;5121826;28;20049;-75
2022/04/28 00:38:12;;;;;;;25.20;15.25;;;5.50;99.90;;;;;;5127757;28;21610;-76
2022/04/28 00:40:45;;;;;;;24.20;14.60;;;5.40;99.90;;;;;;5125145;28;20538;-75
2022/04/28 00:43:26;;;;;;;21.40;14.37;;;5.40;99.90;;;;;;5121262;28;20085;-75
2022/04/28 00:46:02;;;;;;;23.52;14.77;;;5.40;99.90;;;;;;5132830;28;20302;-75
2022/04/28 00:51:28;;;;;;;26.23;15.75;;;5.30;99.90;;;;;;5128833;28;20054;-76
2022/04/28 00:54:02;;;;;;;24.35;14.88;;;5.30;99.90;;;;;;5125850;28;20153;-75
2022/04/28 00:56:35;;;;;;;23.35;14.50;;;5.20;99.90;;;;;;5101847;28;20552;-76
2022/04/28 00:59:10;;;;;;;20.10;13.43;;;5.20;99.90;;;;;;5135127;28;20486;-76
2022/04/28 01:01:43;;;;;;;25.58;14.27;;;5.20;99.90;;;;;;5118552;28;20059;-76
2022/04/28 01:04:15;;;;;;;23.73;13.80;;;5.20;99.90;;;;;;5116275;28;20109;-75
2022/04/28 01:06:48;;;;;;;24.63;13.95;;;5.10;99.90;;;;;;5133271;28;20061;-75
2022/04/28 01:09:21;;;;;;;25.13;13.57;;;5.10;99.90;;;;;;5116654;28;20431;-75
2022/04/28 01:11:53;;;;;;;27.13;15.10;;;5.00;99.90;;;;;;5126167;28;20055;-75
2022/04/28 01:14:29;;;;;;;22.98;13.52;;;4.90;99.90;;;;;;5123677;28;20069;-76
2022/04/28 01:17:08;;;;;;;25.17;15.25;;;4.90;99.90;;;;;;5103674;28;20055;-75
2022/04/28 01:19:41;;;;;;;29.75;16.10;;;4.90;99.90;;;;;;5120124;28;20047;-76
2022/04/28 01:22:13;;;;;;;21.65;14.32;;;4.90;99.90;;;;;;5105940;28;20062;-76
2022/04/28 01:24:46;;;;;;;26.25;14.95;;;4.80;99.90;;;;;;5138789;28;20047;-76
2022/04/28 01:27:19;;;;;;;24.77;14.73;;;4.70;99.90;;;;;;5123658;28;20070;-76
2022/04/28 01:29:52;;;;;;;22.40;13.30;;;4.70;99.90;;;;;;5119070;28;20610;-75
2022/04/28 01:32:24;;;;;;;23.97;14.40;;;4.60;99.90;;;;;;5134698;28;20046;-75
2022/04/28 01:34:57;;;;;;;22.25;14.27;;;4.70;99.90;;;;;;5122308;28;20058;-76
2022/04/28 01:37:30;;;;;;;25.83;15.43;;;4.70;99.90;;;;;;5117920;28;20042;-75
2022/04/28 01:40:11;;;;;;;22.25;14.18;;;4.70;99.90;;;;;;5113726;28;20061;-76
2022/04/28 01:42:45;;;;;;;21.50;13.40;;;4.70;99.90;;;;;;5123832;28;20055;-76
2022/04/28 01:45:19;;;;;;;21.35;13.93;;;4.60;99.90;;;;;;5116411;28;20102;-76
2022/04/28 01:48:16;;;;;;;24.77;14.68;;;4.60;99.90;;;;;;5136105;28;20960;-76
2022/04/28 01:57:20;;;;;;;26.55;14.40;;;4.40;99.90;;;;;;5119905;28;20609;-76
2022/04/28 02:00:06;;;;;;;23.17;14.10;;;4.30;99.90;;;;;;5107534;28;20057;-74
2022/04/28 02:02:53;;;;;;;24.33;14.23;;;4.30;99.90;;;;;;5123892;28;20065;-76
2022/04/28 02:05:27;;;;;;;28.10;15.18;;;4.30;99.90;;;;;;5128447;28;20055;-76
2022/04/28 02:08:00;;;;;;;21.80;13.55;;;4.40;99.90;;;;;;5138311;28;21358;-75
2022/04/28 02:10:33;;;;;;;27.83;13.95;;;4.30;99.90;;;;;;5123563;28;20078;-76
2022/04/28 02:13:08;;;;;;;26.73;15.65;;;4.20;99.90;;;;;;5130347;28;20387;-76
2022/04/28 02:16:19;;;;;;;25.65;15.38;;;4.20;99.90;;;;;;5120403;28;20051;-76
2022/04/28 02:19:03;;;;;;;;;;;4.10;99.90;;;;;;5134076;28;20589;-76
2022/04/28 02:21:36;;;;;;;29.27;14.77;;;4.00;99.90;;;;;;5127992;28;19925;-76
2022/04/28 02:24:08;;;;;;;26.38;14.88;;;3.90;99.90;;;;;;5122765;28;20050;-76
2022/04/28 02:26:41;;;;;;;21.60;13.40;;;4.00;99.90;;;;;;5133525;28;20062;-76
2022/04/28 02:29:13;;;;;;;21.55;12.05;;;4.10;99.90;;;;;;5119606;28;20046;-75
2022/04/28 02:31:47;;;;;;;19.08;12.23;;;4.10;99.90;;;;;;5120930;28;20054;-76
2022/04/28 02:34:20;;;;;;;21.08;12.50;;;4.10;99.90;;;;;;5138566;28;20043;-76
2022/04/28 02:36:56;;;;;;;22.85;14.20;;;4.20;99.90;;;;;;5117952;28;20070;-77
2022/04/28 02:39:33;;;;;;;23.02;14.30;;;4.20;99.90;;;;;;5136811;28;20043;-74
2022/04/28 02:42:05;;;;;;;25.58;15.13;;;4.00;99.90;;;;;;5116774;28;20043;-76
2022/04/28 02:44:38;;;;;;;23.73;14.70;;;4.00;99.90;;;;;;5118599;28;20637;-76
2022/04/28 02:47:15;;;;;;;28.48;15.75;;;3.90;99.90;;;;;;5119760;28;20051;-74
2022/04/28 02:49:50;;;;;;;36.15;18.23;;;3.90;99.90;;;;;;5139494;28;20171;-76
2022/04/28 02:52:23;;;;;;;35.08;18.65;;;3.80;99.90;;;;;;5131917;28;20078;-76
2022/04/28 02:54:57;;;;;;;31.23;16.83;;;3.70;99.90;;;;;;5140435;28;20082;-75
2022/04/28 02:57:30;;;;;;;29.60;16.23;;;3.70;99.90;;;;;;5117678;28;20616;-77
2022/04/28 03:00:04;;;;;;;33.23;17.90;;;3.60;99.90;;;;;;5097275;28;20054;-75
2022/04/28 03:02:44;;;;;;;31.58;16.80;;;3.60;99.90;;;;;;5120009;28;20062;-76
2022/04/28 03:05:17;;;;;;;24.60;15.00;;;3.50;99.90;;;;;;5121746;28;20444;-74
2022/04/28 03:10:53;;;;;;;27.50;15.50;;;3.60;99.90;;;;;;5122405;28;27169;-76
2022/04/28 03:13:31;;;;;;;28.88;16.25;;;3.60;99.90;;;;;;5093897;28;20047;-75
2022/04/28 03:16:05;;;;;;;33.00;16.92;;;3.60;99.90;;;;;;5113631;28;20055;-76
2022/04/28 03:18:57;;;;;;;29.20;15.60;;;3.50;99.90;;;;;;5125065;28;20517;-75
2022/04/28 03:21:30;;;;;;;27.75;15.80;;;3.40;99.90;;;;;;5120613;28;21202;-75
2022/04/28 03:24:03;;;;;;;24.83;15.30;;;3.50;99.90;;;;;;5111780;28;20069;-75
2022/04/28 03:26:37;;;;;;;24.05;13.85;;;3.50;99.90;;;;;;5115853;28;20471;-76
2022/04/28 03:29:17;;;;;;;23.08;13.18;;;3.60;99.90;;;;;;5120048;28;20073;-76
2022/04/28 03:31:50;;;;;;;27.45;15.73;;;3.50;99.90;;;;;;5119140;28;20043;-75
2022/04/28 03:34:33;;;;;;;23.47;14.13;;;3.50;99.90;;;;;;5110317;28;20047;-76
2022/04/28 03:37:06;;;;;;;27.08;14.93;;;3.50;99.90;;;;;;5112081;28;20411;-76
2022/04/28 03:39:42;;;;;;;27.33;15.85;;;3.50;99.90;;;;;;5139286;28;20458;-75
2022/04/28 03:42:15;;;;;;;31.45;16.33;;;3.40;99.90;;;;;;5125151;28;20051;-75
2022/04/28 03:44:48;;;;;;;28.17;16.10;;;3.30;99.90;;;;;;5123062;28;20061;-76
2022/04/28 03:47:21;;;;;;;25.55;14.90;;;3.30;99.90;;;;;;5107361;28;20062;-76
2022/04/28 03:49:55;;;;;;;25.42;14.95;;;3.20;99.90;;;;;;5112505;28;20055;-74
2022/04/28 03:52:27;;;;;;;28.77;15.10;;;3.30;99.90;;;;;;5098009;28;20043;-75
2022/04/28 03:55:05;;;;;;;23.42;14.05;;;3.30;99.90;;;;;;5117520;28;20057;-74
2022/04/28 03:57:37;;;;;;;23.23;13.27;;;3.40;99.90;;;;;;5109072;28;20042;-76
2022/04/28 04:00:11;;;;;;;22.25;14.00;;;3.50;99.90;;;;;;5126895;28;20046;-75
2022/04/28 04:02:56;;;;;;;22.77;13.85;;;3.40;99.90;;;;;;5105812;28;20058;-73
2022/04/28 04:05:32;;;;;;;23.13;13.93;;;3.40;99.90;;;;;;5095020;28;20057;-74
2022/04/28 04:08:05;;;;;;;24.67;14.27;;;3.40;99.90;;;;;;5111863;28;20804;-74
2022/04/28 04:10:39;;;;;;;23.95;13.98;;;3.40;99.90;;;;;;5113808;28;20142;-76
2022/04/28 04:13:12;;;;;;;24.35;13.95;;;3.50;99.90;;;;;;5104991;28;20066;-74
2022/04/28 04:15:51;;;;;;;27.65;14.05;;;3.40;99.90;;;;;;5087831;28;20054;-75
2022/04/28 04:18:50;;;;;;;24.35;14.32;;;3.40;99.90;;;;;;5105490;28;20066;-74
2022/04/28 04:21:29;;;;;;;28.30;16.48;;;3.30;99.90;;;;;;5128423;28;20047;-74
2022/04/28 04:24:06;;;;;;;27.92;17.65;;;3.30;99.90;;;;;;5095177;28;20054;-75
2022/04/28 04:26:45;;;;;;;27.63;15.73;;;3.30;99.90;;;;;;5121699;28;20051;-76
2022/04/28 04:29:25;;;;;;;;;;;3.30;99.90;;;;;;5125004;28;20278;-75
2022/04/28 04:32:20;;;;;;;25.45;15.65;;;3.20;99.90;;;;;;5105325;28;19930;-74
2022/04/28 04:34:56;;;;;;;30.23;16.38;;;3.30;99.90;;;;;;5106860;28;20047;-75
2022/04/28 04:37:33;;;;;;;25.02;14.52;;;3.30;99.90;;;;;;5099758;28;20055;-75
2022/04/28 04:40:08;;;;;;;;;;;3.30;99.90;;;;;;5125840;28;20051;-75
2022/04/28 04:42:41;;;;;;;21.88;13.75;;;3.30;99.90;;;;;;5116731;28;19933;-75
2022/04/28 04:45:14;;;;;;;25.95;14.90;;;3.40;99.90;;;;;;5125337;28;20047;-75
2022/04/28 04:48:02;;;;;;;22.17;13.88;;;3.50;99.90;;;;;;5124556;28;20050;-75
2022/04/28 04:50:49;;;;;;;23.73;13.75;;;3.50;99.90;;;;;;5090550;28;20411;-75
2022/04/28 04:53:32;;;;;;;26.27;14.77;;;3.60;99.90;;;;;;5102948;28;20574;-75
2022/04/28 04:56:06;;;;;;;35.67;16.02;;;3.60;99.90;;;;;;5080582;28;20046;-76
2022/04/28 04:58:38;;;;;;;27.00;16.35;;;3.60;99.90;;;;;;5097502;28;20087;-75
2022/04/28 05:01:13;;;;;;;31.92;16.98;;;3.70;99.90;;;;;;5094290;28;20062;-75
2022/04/28 05:04:07;;;;;;;27.98;16.80;;;3.70;99.90;;;;;;5111986;28;20559;-78
2022/04/28 05:07:18;;;;;;;25.05;15.18;;;3.90;99.90;;;;;;5096249;28;20070;-76
2022/04/28 05:09:53;;;;;;;26.58;15.35;;;3.90;99.90;;;;;;5072980;28;20056;-77
2022/04/28 05:12:25;;;;;;;27.52;16.10;;;4.00;99.90;;;;;;5085223;28;20109;-75
2022/04/28 05:15:05;;;;;;;30.88;16.27;;;4.10;99.90;;;;;;5103652;28;20404;-75
2022/04/28 05:17:43;;;;;;;28.05;15.70;;;4.10;99.90;;;;;;5090657;28;20451;-75
2022/04/28 05:20:22;;;;;;;28.88;16.60;;;4.20;99.90;;;;;;5118212;28;20058;-75
2022/04/28 05:23:13;;;;;;;28.75;17.30;;;4.40;99.90;;;;;;5112139;28;20050;-75
2022/04/28 05:26:04;;;;;;;27.08;15.50;;;4.50;99.90;;;;;;5119345;28;20046;-76
2022/04/28 05:28:55;;;;;;;37.85;19.27;;;4.60;99.90;;;;;;5102937;28;20043;-75
2022/04/28 05:32:00;;;;;;;;;;;4.70;99.90;;;;;;5082987;28;20058;-75
2022/04/28 05:34:58;;;;;;;46.25;22.60;;;4.80;99.90;;;;;;5103304;28;19930;-74
2022/04/28 05:37:31;;;;;;;39.28;21.00;;;4.90;99.90;;;;;;5098870;28;20062;-76
2022/04/28 05:40:09;;;;;;;41.22;23.92;;;5.10;99.90;;;;;;5116111;28;20053;-76
2022/04/28 05:45:51;;;;;;;47.92;25.60;;;5.40;99.90;;;;;;5127245;28;20073;-75
2022/04/28 05:48:24;;;;;;;51.10;26.40;;;5.60;99.90;;;;;;5113243;28;20058;-76
2022/04/28 05:51:01;;;;;;;48.50;26.52;;;5.70;99.90;;;;;;5119524;28;20582;-76
2022/04/28 05:53:34;;;;;;;45.22;26.23;;;5.80;99.90;;;;;;5110447;28;20430;-75
2022/04/28 05:56:09;;;;;;;51.40;27.38;;;6.00;99.90;;;;;;5114727;28;20946;-75
2022/04/28 05:58:46;;;;;;;51.95;28.60;;;6.10;99.90;;;;;;5114662;28;20845;-75
2022/04/28 06:01:38;;;;;;;51.25;26.92;;;6.20;99.90;;;;;;5118849;28;20150;-75
2022/04/28 06:04:13;;;;;;;49.20;26.58;;;6.40;99.90;;;;;;5114921;28;20053;-76
2022/04/28 06:06:48;;;;;;;51.58;29.45;;;6.50;99.90;;;;;;5118208;28;20049;-75
2022/04/28 06:09:34;;;;;;;50.72;29.23;;;6.60;99.90;;;;;;5101175;28;20047;-75
2022/04/28 06:12:07;;;;;;;49.67;29.63;;;6.80;99.90;;;;;;5136888;28;20054;-75
2022/04/28 06:15:06;;;;;;;55.17;30.30;;;6.90;99.90;;;;;;5116851;28;20898;-76
2022/04/28 06:17:57;;;;;;;51.90;29.35;;;7.20;99.90;;;;;;5122255;28;20058;-75
2022/04/28 06:20:30;;;;;;;47.50;27.35;;;7.30;99.90;;;;;;5117975;28;20054;-76
2022/04/28 06:23:16;;;;;;;49.90;28.67;;;7.50;99.90;;;;;;5130256;28;20380;-75
2022/04/28 06:25:51;;;;;;;50.67;29.05;;;7.70;99.90;;;;;;5133598;28;20538;-75
2022/04/28 06:28:24;;;;;;;45.33;26.60;;;7.90;99.90;;;;;;5134168;28;20042;-75
2022/04/28 06:31:02;;;;;;;47.58;28.15;;;8.10;99.90;;;;;;5114948;28;20050;-75
2022/04/28 06:34:03;;;;;;;44.35;27.10;;;8.20;99.90;;;;;;5094652;28;20066;-76
2022/04/28 06:36:42;;;;;;;48.90;25.85;;;8.40;99.90;;;;;;5125936;28;20064;-75
2022/04/28 06:39:15;;;;;;;41.25;25.92;;;8.50;99.90;;;;;;5121973;28;20055;-76
2022/04/28 06:41:49;;;;;;;42.72;26.30;;;8.70;99.90;;;;;;5110321;28;20058;-76
2022/04/28 06:44:26;;;;;;;39.78;24.42;;;8.80;99.90;;;;;;5119744;28;20050;-75
2022/04/28 06:47:34;;;;;;;44.38;25.40;;;9.10;99.90;;;;;;5109859;28;20069;-76
2022/04/28 06:50:32;;;;;;;43.13;24.73;;;9.20;99.90;;;;;;5121843;28;20043;-75
2022/04/28 06:53:24;;;;;;;37.85;21.10;;;9.40;99.90;;;;;;5116166;28;20427;-76
2022/04/28 06:56:08;;;;;;;36.03;21.05;;;9.50;99.90;;;;;;5113494;28;20047;-76
2022/04/28 06:58:56;;;;;;;32.15;19.05;;;9.70;99.90;;;;;;5114664;28;20047;-75
2022/04/28 07:01:34;;;;;;;30.83;19.15;;;9.90;99.90;;;;;;5101530;28;20668;-76
2022/04/28 07:04:15;;;;;;;29.20;18.83;;;10.00;99.90;;;;;;5108776;28;20050;-75
2022/04/28 07:06:48;;;;;;;29.17;19.17;;;10.30;99.90;;;;;;5110085;28;20042;-76
2022/04/28 07:09:24;;;;;;;28.42;18.20;;;10.50;99.90;;;;;;5090953;28;20051;-76
2022/04/28 07:11:56;;;;;;;22.05;15.18;;;10.60;99.90;;;;;;5121472;28;20051;-75
2022/04/28 07:14:52;;;;;;;23.48;15.85;;;10.80;99.90;;;;;;5117238;28;20057;-73
2022/04/28 07:17:43;;;;;;;22.50;14.57;;;10.90;99.90;;;;;;5102602;28;20510;-75
2022/04/28 07:20:16;;;;;;;20.07;13.63;;;11.10;99.90;;;;;;5110288;28;20042;-76
2022/04/28 07:22:48;;;;;;;19.17;13.70;;;11.40;99.90;;;;;;5110293;28;20141;-76
2022/04/28 07:25:21;;;;;;;21.08;13.63;;;11.60;99.90;;;;;;5137200;28;20089;-76
2022/04/28 07:27:56;;;;;;;20.08;12.23;;;11.70;99.90;;;;;;5135050;28;20062;-76
2022/04/28 07:30:51;;;;;;;17.60;12.40;;;11.90;99.80;;;;;;5114204;28;20050;-76
2022/04/28 07:33:47;;;;;;;16.35;11.52;;;12.10;98.20;;;;;;5113730;28;20691;-75
2022/04/28 07:36:38;;;;;;;16.17;10.88;;;12.20;95.30;;;;;;5109766;28;20043;-76
2022/04/28 07:39:29;;;;;;;16.40;11.18;;;12.30;93.00;;;;;;5115125;28;20047;-76
2022/04/28 07:42:17;;;;;;;14.80;10.32;;;12.40;91.80;;;;;;5101309;28;20054;-76
2022/04/28 07:44:52;;;;;;;15.00;11.07;;;12.60;91.10;;;;;;5112184;28;20050;-74
2022/04/28 07:47:28;;;;;;;14.73;10.27;;;12.70;89.40;;;;;;5108269;28;20051;-76
2022/04/28 07:50:10;;;;;;;13.80;9.80;;;12.80;87.60;;;;;;5111154;28;20046;-74
2022/04/28 07:52:44;;;;;;;13.43;9.45;;;13.00;86.50;;;;;;5132929;28;20051;-76
2022/04/28 07:55:17;;;;;;;17.27;10.45;;;13.00;85.00;;;;;;5120615;28;20042;-76
2022/04/28 07:57:53;;;;;;;13.57;10.38;;;13.10;82.90;;;;;;5110723;28;20058;-76
2022/04/28 08:00:38;;;;;;;13.07;9.82;;;13.10;81.50;;;;;;5118336;28;20735;-75
2022/04/28 08:03:14;;;;;;;13.70;8.95;;;13.20;81.00;;;;;;5101698;28;20153;-74
2022/04/28 08:05:55;;;;;;;13.25;8.65;;;13.30;81.00;;;;;;5102426;28;20528;-75
2022/04/28 08:08:28;;;;;;;14.67;9.40;;;13.40;78.50;;;;;;5115521;28;20043;-76
2022/04/28 08:11:01;;;;;;;11.63;8.47;;;13.40;76.60;;;;;;5100587;28;20302;-76
2022/04/28 08:13:34;;;;;;;15.65;8.45;;;13.50;77.00;;;;;;5123427;28;20308;-76
2022/04/28 08:16:16;;;;;;;11.25;8.02;;;13.60;76.30;;;;;;5126850;28;20499;-75
2022/04/28 08:18:52;;;;;;;8.70;6.80;;;13.60;75.40;;;;;;5108950;28;20051;-75
2022/04/28 08:21:33;;;;;;;15.40;7.72;;;13.70;73.90;;;;;;5107226;28;20066;-76
2022/04/28 08:24:06;;;;;;;12.05;7.43;;;13.90;73.10;;;;;;5134525;28;20047;-78
2022/04/28 08:26:39;;;;;;;9.48;6.82;;;13.90;72.00;;;;;;5110810;28;20042;-77
2022/04/28 08:29:11;;;;;;;11.70;7.75;;;14.00;71.30;;;;;;5119246;28;20050;-76
2022/04/28 08:31:49;;;;;;;16.55;7.47;;;14.00;71.00;;;;;;5119041;28;20038;-77
2022/04/28 08:34:26;;;;;;;9.40;6.75;;;14.10;69.10;;;;;;5138971;28;20062;-76
2022/04/28 08:36:58;;;;;;;13.10;7.37;;;14.10;68.90;;;;;;5134342;28;20051;-79
2022/04/28 08:39:36;;;;;;;11.23;6.90;;;14.10;68.50;;;;;;5137693;28;20514;-76
2022/04/28 08:42:12;;;;;;;10.82;6.85;;;14.00;67.00;;;;;;5117985;28;20050;-75
2022/04/28 08:45:02;;;;;;;11.25;6.57;;;14.00;67.40;;;;;;5119234;28;20050;-76
2022/04/28 08:47:47;;;;;;;10.48;6.45;;;14.20;67.00;;;;;;5135561;28;20047;-76
2022/04/28 08:50:35;;;;;;;9.73;5.53;;;14.20;64.70;;;;;;5103030;28;20051;-75
2022/04/28 08:53:12;;;;;;;10.13;6.38;;;14.30;65.80;;;;;;5125579;28;20050;-76
2022/04/28 08:55:48;;;;;;;10.45;7.03;;;14.30;64.70;;;;;;5133546;28;20403;-76
2022/04/28 08:58:20;;;;;;;8.88;5.25;;;14.30;64.10;;;;;;5138706;28;20403;-76
2022/04/28 09:00:57;;;;;;;10.43;6.18;;;14.30;64.80;;;;;;5130519;28;20506;-77
2022/04/28 09:03:32;;;;;;;12.07;7.00;;;14.40;64.00;;;;;;5146416;28;20057;-76
2022/04/28 09:06:44;;;;;;;10.65;6.47;;;14.40;64.40;;;;;;5132815;28;20503;-76
2022/04/28 09:09:36;;;;;;;10.10;6.55;;;14.30;63.50;;;;;;5132149;28;20050;-76
2022/04/28 09:12:27;;;;;;;9.68;6.57;;;14.40;63.50;;;;;;5137894;28;20039;-76
2022/04/28 09:15:12;;;;;;;11.57;6.55;;;14.50;63.90;;;;;;5143863;28;20042;-76
2022/04/28 09:17:52;;;;;;;11.10;7.22;;;14.40;61.80;;;;;;5122509;28;20047;-76
2022/04/28 09:20:25;;;;;;;10.40;6.05;;;14.30;63.90;;;;;;5141177;28;20043;-77
2022/04/28 09:23:08;;;;;;;8.60;6.55;;;14.50;64.70;;;;;;5107684;28;20070;-76
2022/04/28 09:25:47;;;;;;;9.18;5.65;;;14.60;63.60;;;;;;5119056;28;20130;-77
2022/04/28 09:28:22;;;;;;;11.45;6.90;;;14.60;62.10;;;;;;5122994;28;20546;-77
2022/04/28 09:30:56;;;;;;;9.60;6.60;;;14.70;62.30;;;;;;5118273;28;20047;-76
2022/04/28 09:33:48;;;;;;;10.80;6.00;;;14.60;61.30;;;;;;5119569;28;20521;-76
2022/04/28 09:36:29;;;;;;;8.15;5.40;;;14.70;59.70;;;;;;5138160;28;20035;-75
2022/04/28 09:39:11;;;;;;;13.95;5.25;;;14.80;59.50;;;;;;5140143;28;20123;-76
2022/04/28 09:44:43;;;;;;;6.75;4.68;;;14.90;59.00;;;;;;5138746;28;20054;-76
2022/04/28 09:47:23;;;;;;;9.02;5.53;;;15.10;58.00;;;;;;5121584;28;20050;-76
2022/04/28 09:49:55;;;;;;;8.90;5.47;;;15.20;59.00;;;;;;5106741;28;20067;-77
2022/04/28 09:52:32;;;;;;;7.82;5.22;;;15.40;58.00;;;;;;5119997;28;20407;-76
2022/04/28 09:55:24;;;;;;;7.38;4.45;;;15.50;57.70;;;;;;5123785;28;20054;-76
2022/04/28 09:58:38;;;;;;;7.40;5.18;;;15.50;56.20;;;;;;5116297;28;20054;-74
2022/04/28 10:01:13;;;;;;;9.55;5.97;;;15.50;57.30;;;;;;5135743;28;20047;-75
2022/04/28 10:03:46;;;;;;;8.68;5.65;;;15.40;56.70;;;;;;5113903;28;20046;-75
2022/04/28 10:06:25;;;;;;;7.55;5.57;;;15.20;56.60;;;;;;5119756;28;20053;-75
2022/04/28 10:09:04;;;;;;;7.35;6.00;;;15.20;56.60;;;;;;5144195;28;20051;-75
2022/04/28 10:11:37;;;;;;;9.55;6.07;;;15.40;57.00;;;;;;5129426;28;20062;-75
2022/04/28 10:14:12;;;;;;;7.88;5.22;;;15.60;56.10;;;;;;5123053;28;20046;-75
2022/04/28 10:16:49;;;;;;;10.90;5.50;;;15.50;54.50;;;;;;5127090;28;20057;-75
2022/04/28 10:19:26;;;;;;;8.02;5.63;;;15.50;55.00;;;;;;5105145;28;20038;-75
2022/04/28 10:22:10;;;;;;;9.77;5.32;;;15.60;54.40;;;;;;5124784;28;20050;-75
2022/04/28 10:33:41;;;;;;;7.55;4.93;;;15.30;54.20;;;;;;5134165;28;20034;-74
2022/04/28 10:36:21;;;;;;;6.22;4.95;;;15.40;54.10;;;;;;5137492;28;20962;-74
2022/04/28 10:39:08;;;;;;;9.65;5.32;;;15.60;52.80;;;;;;5118339;28;20051;-75
2022/04/28 10:41:41;;;;;;;6.15;4.45;;;15.80;53.00;;;;;;5131585;28;20059;-76
2022/04/28 10:44:17;;;;;;;8.32;5.28;;;15.90;53.90;;;;;;5120029;28;20058;-75
2022/04/28 10:47:02;;;;;;;6.80;4.97;;;16.10;53.00;;;;;;5129310;28;20427;-74
2022/04/28 10:49:39;;;;;;;6.68;4.68;;;16.10;52.80;;;;;;5122463;28;20046;-74
2022/04/28 10:52:25;;;;;;;8.07;5.47;;;15.90;53.60;;;;;;5141340;28;20054;-75
2022/04/28 10:55:02;;;;;;;8.52;5.50;;;15.80;53.20;;;;;;5123120;28;20043;-74
2022/04/28 10:57:37;;;;;;;8.25;5.28;;;16.10;53.30;;;;;;5112465;28;20062;-74
2022/04/28 11:00:14;;;;;;;6.55;5.05;;;16.50;51.80;;;;;;5113619;28;21234;-75
2022/04/28 11:02:46;;;;;;;6.93;4.25;;;16.80;51.30;;;;;;5115950;28;20043;-74
2022/04/28 11:05:28;;;;;;;8.77;5.43;;;16.90;52.20;;;;;;5134305;28;20055;-74
2022/04/28 11:08:01;;;;;;;8.38;5.15;;;17.40;51.00;;;;;;5114187;28;20051;-74
2022/04/28 11:11:08;;;;;;;8.35;5.70;;;18.10;50.70;;;;;;5105294;28;20054;-74
2022/04/28 11:13:45;;;;;;;7.68;5.03;;;18.50;50.10;;;;;;5134038;28;20043;-74
2022/04/28 11:16:18;;;;;;;6.38;4.78;;;18.60;50.00;;;;;;5106988;28;20066;-73
2022/04/28 11:18:53;;;;;;;8.27;5.70;;;18.90;49.00;;;;;;5121136;28;20059;-75
2022/04/28 11:21:25;;;;;;;11.00;5.60;;;19.30;48.50;;;;;;5121569;28;20054;-74
2022/04/28 11:23:58;;;;;;;8.55;5.45;;;19.60;48.60;;;;;;5116245;28;20058;-74
2022/04/28 11:26:38;;;;;;;6.80;5.03;;;19.90;47.80;;;;;;5116485;28;20067;-74
2022/04/28 11:29:31;;;;;;;7.63;5.20;;;19.50;47.40;;;;;;5135379;28;20046;-74
2022/04/28 11:32:04;;;;;;;8.50;4.65;;;19.80;47.00;;;;;;5118596;28;20047;-74
2022/04/28 11:34:36;;;;;;;6.70;5.00;;;19.60;49.00;;;;;;5135519;28;20771;-74
2022/04/28 11:37:28;;;;;;;8.50;6.07;;;19.80;47.50;;;;;;5111559;28;20047;-74
2022/04/28 11:40:00;;;;;;;7.90;6.10;;;19.70;46.70;;;;;;5119953;28;20069;-74
2022/04/28 11:43:01;;;;;;;10.38;6.97;;;19.20;48.50;;;;;;5127877;28;20498;-74
2022/04/28 11:45:36;;;;;;;8.05;5.30;;;18.50;48.30;;;;;;5125298;28;20526;-74
2022/04/28 11:48:09;;;;;;;7.47;5.03;;;18.70;49.80;;;;;;5111018;28;20557;-74
2022/04/28 11:50:44;;;;;;;7.22;4.70;;;19.20;48.30;;;;;;5111125;28;20518;-75
2022/04/28 11:53:18;;;;;;;7.25;4.55;;;19.40;47.80;;;;;;5126584;28;20047;-75
2022/04/28 11:55:50;;;;;;;;;;;20.00;46.80;;;;;;4436322;28;10000444;-75
2022/04/28 11:58:26;;;;;;;8.93;5.78;;;20.30;46.00;;;;;;5114645;28;19937;-73
2022/04/28 12:00:59;;;;;;;7.72;5.28;;;20.60;47.60;;;;;;5109708;28;20066;-74
2022/04/28 12:03:33;;;;;;;8.02;5.13;;;20.70;45.70;;;;;;5090802;28;20419;-75
2022/04/28 12:06:06;;;;;;;7.47;5.53;;;20.70;45.00;;;;;;5118310;28;20050;-74
2022/04/28 12:08:39;;;;;;;7.18;5.47;;;20.80;44.30;;;;;;5067987;28;20066;-75
2022/04/28 12:14:26;;;;;;;13.65;5.78;;;20.60;45.10;;;;;;5115724;28;20981;-76
2022/04/28 12:19:57;;;;;;;8.85;4.80;;;21.00;45.70;;;;;;5115164;28;20053;-75
2022/04/28 12:22:35;;;;;;;7.05;5.32;;;21.30;43.20;;;;;;5110437;28;20045;-75
2022/04/28 12:25:11;;;;;;;6.63;5.63;;;21.50;43.80;;;;;;5142902;28;20050;-75
2022/04/28 12:27:51;;;;;;;10.10;6.32;;;21.40;43.60;;;;;;5129737;28;20039;-75
2022/04/28 12:30:24;;;;;;;8.38;5.75;;;21.70;43.20;;;;;;5130610;28;20495;-75
2022/04/28 12:32:59;;;;;;;8.35;6.00;;;21.90;44.30;;;;;;5130159;28;20046;-74
2022/04/28 12:35:36;;;;;;;7.70;5.75;;;21.60;43.10;;;;;;5145272;28;20708;-74
2022/04/28 12:38:09;;;;;;;8.70;5.82;;;21.40;43.20;;;;;;5139783;28;20051;-74
2022/04/28 12:40:42;;;;;;;10.65;5.43;;;21.20;43.40;;;;;;5145214;28;20057;-74
2022/04/28 12:43:34;;;;;;;;;;;21.40;44.00;;;;;;5132596;28;20043;-75
2022/04/28 12:46:06;;;;;;;7.97;5.75;;;21.30;42.40;;;;;;5127836;28;20639;-75
2022/04/28 12:48:39;;;;;;;8.20;5.27;;;21.50;43.80;;;;;;5128389;28;20071;-75
2022/04/28 12:51:19;;;;;;;8.65;5.72;;;21.40;43.90;;;;;;5142948;28;20046;-75
2022/04/28 12:54:21;;;;;;;6.22;5.38;;;21.70;42.00;;;;;;5135284;28;20058;-75
2022/04/28 12:57:00;;;;;;;8.00;4.95;;;21.90;41.00;;;;;;5127202;28;20058;-75
2022/04/28 12:59:36;;;;;;;9.07;5.90;;;22.20;42.30;;;;;;5128547;28;20066;-75
2022/04/28 13:02:09;;;;;;;7.95;4.90;;;22.10;42.40;;;;;;5123250;28;20047;-75
2022/04/28 13:04:42;;;;;;;6.97;6.07;;;22.20;42.80;;;;;;5121959;28;20055;-74
2022/04/28 13:07:15;;;;;;;6.45;5.25;;;21.90;42.20;;;;;;5132380;28;20325;-75
2022/04/28 13:09:47;;;;;;;6.07;5.00;;;22.30;42.80;;;;;;5125533;28;20542;-75
2022/04/28 13:12:21;;;;;;;8.47;5.13;;;22.50;42.20;;;;;;5125866;28;20045;-74
2022/04/28 13:14:53;;;;;;;7.28;5.40;;;22.50;41.80;;;;;;5142246;28;20050;-74
2022/04/28 13:17:27;;;;;;;9.95;6.55;;;22.60;42.10;;;;;;5142195;28;20062;-74
2022/04/28 13:19:59;;;;;;;7.63;6.10;;;22.50;40.80;;;;;;5129641;28;20047;-74
2022/04/28 13:22:32;;;;;;;14.50;6.07;;;22.40;41.00;;;;;;5134211;28;20057;-73
2022/04/28 13:25:05;;;;;;;6.70;5.60;;;22.40;41.60;;;;;;5123503;28;20061;-74
2022/04/28 13:27:37;;;;;;;6.95;5.13;;;22.60;42.60;;;;;;5127437;28;20507;-75
2022/04/28 13:30:11;;;;;;;6.93;5.53;;;22.90;41.80;;;;;;5110015;28;20054;-73
2022/04/28 13:32:43;;;;;;;7.05;4.95;;;23.10;41.20;;;;;;5109130;28;20093;-73
2022/04/28 13:35:16;;;;;;;7.17;5.20;;;23.40;41.60;;;;;;5115766;28;20046;-74
2022/04/28 13:37:48;;;;;;;6.30;5.03;;;23.10;40.90;;;;;;5101908;28;20050;-74
2022/04/28 13:40:21;;;;;;;7.60;5.50;;;22.90;41.10;;;;;;5121407;28;20054;-74
2022/04/28 13:42:53;;;;;;;8.77;5.37;;;22.90;41.80;;;;;;5117344;28;20059;-74
2022/04/28 13:45:26;;;;;;;9.48;6.35;;;23.00;41.50;;;;;;5115739;28;20510;-74
2022/04/28 13:48:00;;;;;;;8.82;5.75;;;22.80;42.80;;;;;;5098473;28;20897;-73
2022/04/28 13:50:32;;;;;;;6.88;4.93;;;23.10;42.40;;;;;;5109269;28;20688;-74
2022/04/28 13:53:06;;;;;;;7.97;5.40;;;23.20;41.10;;;;;;5108876;28;20079;-73
2022/04/28 13:55:39;;;;;;;;;;;23.30;41.20;;;;;;5105788;28;20143;-74
2022/04/28 13:58:12;;;;;;;10.63;5.73;;;23.20;39.70;;;;;;5111656;28;19933;-74
2022/04/28 14:00:49;;;;;;;7.97;5.63;;;23.00;40.80;;;;;;5110837;28;20039;-73
2022/04/28 14:03:25;;;;;;;7.80;5.90;;;22.20;41.50;;;;;;3760510;28;10001070;-74
2022/04/28 14:05:59;;;;;;;6.57;5.20;;;21.70;42.40;;;;;;5144924;28;20125;-74
2022/04/28 14:08:32;;;;;;;9.75;4.97;;;21.60;43.40;;;;;;5128096;28;20054;-75
2022/04/28 14:11:07;;;;;;;8.18;5.18;;;21.80;43.20;;;;;;5134431;28;20236;-74